Time;durP1;ratioP1;P1;durP2;ratioP2;P2;SDS_P1;SDS_P2;PMS_P1;PMS_P2;Temp;Humidity;BMP_temperature;BMP_pressure;BME280_temperature;BME280_humidity;BME280_pressure;Samples;Min_cycle;Max_cycle;Signal;HPM_P1;HPM_P2
2023/10/11 00:01:17;;;;;;;7.63;4.53;;;;;;;17.85;41.39;101153.16;5045815;28;20055;-84
2023/10/11 00:03:52;;;;;;;7.15;4.53;;;;;;;17.82;41.26;101156.28;5047400;28;20501;-84
2023/10/11 00:06:21;;;;;;;6.38;3.90;;;;;;;17.82;41.71;101158.19;5056450;28;20051;-84
2023/10/11 00:08:50;;;;;;;7.63;4.28;;;;;;;17.81;41.64;101156.47;5057596;28;20489;-83
2023/10/11 00:11:24;;;;;;;7.13;4.60;;;;;;;17.83;41.43;101159.91;5057860;28;20242;-84
2023/10/11 00:13:53;;;;;;;8.00;4.80;;;;;;;17.77;41.60;101155.94;5052077;28;20103;-83
2023/10/11 00:16:23;;;;;;;7.68;4.45;;;;;;;17.77;41.71;101153.19;5052028;28;20100;-83
2023/10/11 00:18:55;;;;;;;6.40;4.28;;;;;;;17.73;41.32;101151.78;5051244;28;20049;-83
2023/10/11 00:21:35;;;;;;;7.97;4.35;;;;;;;17.70;41.44;101144.69;5051973;28;20449;-83
2023/10/11 00:24:04;;;;;;;7.03;4.70;;;;;;;17.69;41.39;101150.38;5050051;28;20614;-82
2023/10/11 00:26:34;;;;;;;7.00;4.68;;;;;;;17.67;41.78;101152.44;5052058;28;20052;-84
2023/10/11 00:29:04;;;;;;;7.60;4.38;;;;;;;17.65;41.39;101152.63;5054085;28;20057;-84
2023/10/11 00:31:34;;;;;;;6.95;4.35;;;;;;;17.64;41.52;101161.13;5053226;28;20040;-84
2023/10/11 00:34:03;;;;;;;8.95;4.80;;;;;;;17.61;41.50;101156.78;5048991;28;20121;-84
2023/10/11 00:36:32;;;;;;;6.50;4.32;;;;;;;17.59;41.57;101156.09;5048938;28;20055;-84
2023/10/11 00:39:00;;;;;;;7.32;4.30;;;;;;;17.56;41.33;101159.22;5051499;28;20056;-83
2023/10/11 00:41:30;;;;;;;7.07;4.13;;;;;;;17.53;41.70;101156.78;5052523;28;20128;-84
2023/10/11 00:43:59;;;;;;;6.97;4.00;;;;;;;17.51;41.88;101158.00;5050013;28;20318;-83
2023/10/11 00:46:35;;;;;;;9.00;4.90;;;;;;;17.51;41.69;101158.00;5052425;28;20045;-83
2023/10/11 00:49:09;;;;;;;7.05;4.28;;;;;;;17.48;41.59;101156.47;5050255;28;20107;-83
2023/10/11 00:51:39;;;;;;;7.07;4.18;;;;;;;17.47;41.69;101154.72;5051551;28;20407;-83
2023/10/11 00:54:08;;;;;;;8.32;4.28;;;;;;;17.44;41.75;101152.28;5048575;28;20444;-83
2023/10/11 00:56:36;;;;;;;7.15;4.30;;;;;;;17.43;41.79;101145.03;5050254;28;20057;-83
2023/10/11 00:59:08;;;;;;;8.15;4.45;;;;;;;17.43;41.96;101139.50;5049187;28;20049;-83
2023/10/11 01:01:37;;;;;;;;;;;;;;;17.13;42.58;101149.31;5049157;28;20049;-83
2023/10/11 01:04:08;;;;;;;6.90;3.97;;;;;;;17.34;41.78;101146.03;5046774;28;20329;-83
2023/10/11 01:06:37;;;;;;;6.68;4.13;;;;;;;17.32;41.89;101145.34;5048902;28;20061;-83
2023/10/11 01:09:15;;;;;;;6.28;4.30;;;;;;;17.33;41.58;101149.84;5050819;28;20045;-83
2023/10/11 01:11:45;;;;;;;6.00;4.28;;;;;;;17.28;41.58;101150.38;5051436;28;20470;-84
2023/10/11 01:14:14;;;;;;;6.38;4.00;;;;;;;17.26;41.60;101146.91;5050140;28;20049;-83
2023/10/11 01:16:42;;;;;;;7.80;3.92;;;;;;;17.23;41.45;101144.50;5050607;28;20056;-83
2023/10/11 01:19:15;;;;;;;6.38;3.72;;;;;;;17.24;41.80;101137.03;5050749;28;20458;-83
2023/10/11 01:21:51;;;;;;;6.60;4.30;;;;;;;17.21;41.65;101118.91;5051169;28;20130;-83
2023/10/11 01:24:20;;;;;;;6.75;4.03;;;;;;;17.18;41.62;101129.44;5051368;28;20037;-84
2023/10/11 01:26:49;;;;;;;7.63;4.10;;;;;;;17.15;42.15;101118.75;5050492;28;20052;-83
2023/10/11 01:29:18;;;;;;;6.75;4.30;;;;;;;17.14;41.60;101125.31;5051082;28;20068;-83
2023/10/11 01:31:46;;;;;;;7.10;3.97;;;;;;;17.10;42.09;101124.75;5050818;28;20076;-84
2023/10/11 01:34:17;;;;;;;7.80;4.13;;;;;;;17.06;41.82;101114.22;5050601;28;20094;-84
2023/10/11 01:36:47;;;;;;;6.38;4.05;;;;;;;17.07;41.95;101119.59;5050398;28;20053;-84
2023/10/11 01:39:16;;;;;;;6.25;4.25;;;;;;;17.01;42.09;101110.06;5051144;28;20045;-84
2023/10/11 01:41:45;;;;;;;6.53;3.72;;;;;;;17.02;41.83;101102.63;5050716;28;20032;-83
2023/10/11 01:44:13;;;;;;;6.82;3.80;;;;;;;17.00;42.25;101107.47;5049842;28;20045;-83
2023/10/11 01:46:42;;;;;;;7.88;4.22;;;;;;;17.00;41.78;101100.03;5046717;28;20068;-85
2023/10/11 01:49:10;;;;;;;7.82;4.18;;;;;;;16.99;42.40;101101.06;5046818;28;20145;-85
2023/10/11 01:51:40;;;;;;;6.78;4.07;;;;;;;16.98;42.05;101104.03;5055558;28;20057;-83
2023/10/11 01:54:10;;;;;;;7.07;4.00;;;;;;;16.97;42.04;101094.00;5055022;28;20045;-84
2023/10/11 01:56:39;;;;;;;7.07;4.25;;;;;;;16.96;42.18;101100.53;5054435;28;20552;-83
2023/10/11 01:59:09;;;;;;;6.68;4.43;;;;;;;16.95;42.65;101105.19;5051671;28;20048;-83
2023/10/11 02:01:39;;;;;;;7.03;4.00;;;;;;;16.94;42.31;101097.06;5047660;28;20041;-84
2023/10/11 02:04:17;;;;;;;7.20;4.30;;;;;;;16.94;42.44;101099.81;5064415;28;20049;-84
2023/10/11 02:06:47;;;;;;;6.93;4.03;;;;;;;16.92;42.26;101097.22;5047545;28;20136;-84
2023/10/11 02:09:21;;;;;;;7.00;4.13;;;;;;;16.94;42.18;101092.38;5047587;28;20072;-84
2023/10/11 02:11:53;;;;;;;5.43;3.67;;;;;;;16.91;42.25;101086.31;5050609;28;20061;-84
2023/10/11 02:14:23;;;;;;;7.07;4.47;;;;;;;16.88;42.44;101087.56;5050604;28;20577;-84
2023/10/11 02:16:53;;;;;;;6.93;4.13;;;;;;;16.87;42.00;101090.47;5049679;28;20051;-84
2023/10/11 02:19:23;;;;;;;6.03;4.00;;;;;;;16.87;42.57;101085.81;5050159;28;20136;-83
2023/10/11 02:21:53;;;;;;;6.57;4.13;;;;;;;16.84;42.11;101077.84;5049783;28;20049;-83
2023/10/11 02:24:26;;;;;;;6.50;4.35;;;;;;;16.84;42.45;101075.09;5050235;28;20106;-85
2023/10/11 02:26:55;;;;;;;8.20;4.30;;;;;;;16.79;42.44;101080.28;5047698;28;20045;-85
2023/10/11 02:29:26;;;;;;;5.88;3.80;;;;;;;16.77;42.60;101079.56;5049023;28;20060;-85
2023/10/11 02:31:58;;;;;;;6.70;3.97;;;;;;;16.78;42.71;101074.91;5051254;28;20144;-84
2023/10/11 02:34:27;;;;;;;7.18;4.35;;;;;;;16.75;42.10;101072.47;5049904;28;20122;-85
2023/10/11 02:37:01;;;;;;;7.85;4.00;;;;;;;16.71;42.22;101065.56;5047726;28;20076;-84
2023/10/11 02:39:32;;;;;;;6.85;4.20;;;;;;;16.69;42.81;101071.25;5049172;28;20091;-84
2023/10/11 02:42:05;;;;;;;7.53;4.13;;;;;;;16.65;42.14;101078.19;5051142;28;20053;-85
2023/10/11 02:44:39;;;;;;;7.80;4.15;;;;;;;16.60;42.43;101070.38;5050646;28;20797;-85
2023/10/11 02:47:09;;;;;;;6.53;3.97;;;;;;;16.59;42.54;101071.41;5049502;28;20049;-85
2023/10/11 02:49:38;;;;;;;7.85;3.92;;;;;;;16.57;42.57;101073.50;5048758;28;20055;-85
2023/10/11 02:52:06;;;;;;;9.95;4.65;;;;;;;16.54;42.75;101070.19;5049797;28;20121;-85
2023/10/11 02:54:39;;;;;;;6.28;3.90;;;;;;;16.51;42.29;101073.28;5048108;28;20064;-85
2023/10/11 02:57:18;;;;;;;6.90;4.10;;;;;;;16.47;42.37;101064.47;5047663;28;20076;-84
2023/10/11 02:59:50;;;;;;;6.03;4.03;;;;;;;16.46;42.71;101067.41;5048915;28;20051;-85
2023/10/11 03:02:21;;;;;;;6.90;4.07;;;;;;;16.41;42.31;101069.81;5047760;28;20497;-85
2023/10/11 03:04:51;;;;;;;7.20;3.90;;;;;;;16.39;42.90;101064.44;5047944;28;20045;-85
2023/10/11 03:07:22;;;;;;;7.53;3.90;;;;;;;16.39;42.65;101069.09;5046851;28;20477;-84
2023/10/11 03:09:54;;;;;;;8.00;4.13;;;;;;;16.39;42.75;101074.63;5043356;28;20071;-87
2023/10/11 03:12:30;;;;;;;;;;;;;;;16.08;43.67;101068.78;5041351;28;20171;-86
2023/10/11 03:15:06;;;;;;;7.22;3.92;;;;;;;16.32;42.85;101077.22;5042074;28;20084;-85
2023/10/11 03:17:40;;;;;;;6.85;3.72;;;;;;;16.35;42.53;101078.75;5040853;28;20127;-86
2023/10/11 03:20:24;;;;;;;6.93;3.90;;;;;;;16.32;42.75;101074.44;5042958;28;20446;-85
2023/10/11 03:22:52;;;;;;;6.65;3.67;;;;;;;16.29;42.64;101072.00;5044283;28;20098;-86
2023/10/11 03:25:22;;;;;;;6.82;4.05;;;;;;;16.32;42.87;101062.53;5042996;28;20075;-86
2023/10/11 03:27:51;;;;;;;6.20;3.55;;;;;;;16.32;42.60;101065.28;5043108;28;20505;-87
2023/10/11 03:30:24;;;;;;;7.03;3.63;;;;;;;16.31;42.99;101061.66;5043126;28;20243;-86
2023/10/11 03:32:54;;;;;;;5.65;3.75;;;;;;;16.31;42.72;101061.66;5044501;28;20055;-85
2023/10/11 03:35:25;;;;;;;7.47;3.78;;;;;;;16.32;42.69;101057.00;5049383;28;20192;-85
2023/10/11 03:38:00;;;;;;;6.95;3.85;;;;;;;16.31;42.62;101060.78;5053512;28;20048;-85
2023/10/11 03:40:35;;;;;;;7.00;4.07;;;;;;;16.34;42.97;101052.16;5059873;28;20053;-84
2023/10/11 03:43:11;;;;;;;6.75;4.07;;;;;;;16.33;42.61;101050.44;5045686;28;20538;-85
2023/10/11 03:45:49;;;;;;;6.18;4.28;;;;;;;16.35;43.02;101062.19;5044783;28;20187;-85
2023/10/11 03:48:20;;;;;;;6.28;4.18;;;;;;;16.33;42.80;101056.81;5046512;28;20047;-84
2023/10/11 03:50:52;;;;;;;6.88;4.25;;;;;;;16.32;42.78;101055.09;5042153;28;20196;-83
2023/10/11 03:53:21;;;;;;;6.43;4.22;;;;;;;16.32;42.78;101051.47;5046087;28;20144;-85
2023/10/11 03:55:50;;;;;;;6.97;4.50;;;;;;;16.32;43.04;101051.47;5044805;28;20045;-85
2023/10/11 03:58:37;;;;;;;8.48;4.35;;;;;;;16.32;42.75;101048.72;5046525;28;20056;-85
2023/10/11 04:01:14;;;;;;;7.45;3.80;;;;;;;16.28;42.99;101056.47;5046318;28;20041;-86
2023/10/11 04:03:42;;;;;;;7.70;4.25;;;;;;;16.24;42.79;101050.44;5047966;28;20095;-83
2023/10/11 04:06:14;;;;;;;5.95;3.65;;;;;;;16.24;43.03;101047.66;5047563;28;20059;-83
2023/10/11 04:08:48;;;;;;;6.47;4.00;;;;;;;16.21;42.94;101038.84;5044504;28;20080;-83
2023/10/11 04:11:19;;;;;;;8.05;4.15;;;;;;;16.23;42.63;101036.78;5048980;28;20068;-84
2023/10/11 04:13:47;;;;;;;7.10;4.25;;;;;;;16.21;42.93;101039.69;5046859;28;20416;-85
2023/10/11 04:16:16;;;;;;;6.28;4.13;;;;;;;16.20;42.80;101045.38;5046040;28;20182;-84
2023/10/11 04:18:45;;;;;;;7.80;4.38;;;;;;;16.18;42.71;101047.44;5046589;28;20051;-84
2023/10/11 04:21:25;;;;;;;6.38;4.18;;;;;;;16.13;42.79;101036.88;5045273;28;20056;-85
2023/10/11 04:23:56;;;;;;;7.45;4.35;;;;;;;16.11;42.68;101033.41;5046749;28;20056;-84
2023/10/11 04:26:36;;;;;;;7.38;4.43;;;;;;;16.12;43.02;101042.56;5046158;28;20116;-86
2023/10/11 04:29:06;;;;;;;6.57;4.00;;;;;;;16.07;43.24;101037.53;5037804;28;20136;-84
2023/10/11 04:31:54;;;;;;;7.22;4.00;;;;;;;16.06;43.01;101044.09;5044906;28;20080;-84
2023/10/11 04:34:24;;;;;;;6.85;4.10;;;;;;;16.04;43.37;101039.75;5046864;28;20091;-86
2023/10/11 04:36:55;;;;;;;7.38;4.32;;;;;;;16.04;42.86;101043.38;5047339;28;20053;-85
2023/10/11 04:39:33;;;;;;;8.25;4.18;;;;;;;16.04;43.20;101050.81;5047714;28;20057;-85
2023/10/11 04:42:03;;;;;;;7.88;4.25;;;;;;;16.05;43.11;101049.78;5054253;28;20053;-84
2023/10/11 04:44:42;;;;;;;6.82;4.30;;;;;;;16.03;43.24;101051.81;5043285;28;20802;-84
2023/10/11 04:47:11;;;;;;;7.78;4.28;;;;;;;16.02;43.13;101055.63;5043326;28;20049;-84
2023/10/11 04:49:43;;;;;;;8.55;4.45;;;;;;;16.02;43.10;101056.47;5044156;28;20057;-83
2023/10/11 04:52:14;;;;;;;7.82;4.30;;;;;;;16.04;43.11;101059.09;5045273;28;20049;-85
2023/10/11 04:54:53;;;;;;;7.03;4.38;;;;;;;16.04;43.39;101064.59;5044313;28;20044;-84
2023/10/11 04:57:36;;;;;;;6.40;3.67;;;;;;;16.05;43.32;101069.09;5044757;28;20566;-83
2023/10/11 05:00:08;;;;;;;7.35;4.13;;;;;;;16.04;43.38;101067.38;5045362;28;20128;-85
2023/10/11 05:02:38;;;;;;;;;;;;;;;15.78;44.23;101065.50;5049030;28;20040;-85
2023/10/11 05:05:12;;;;;;;5.82;3.88;;;;;;;16.00;43.09;101050.25;5048949;28;20019;-84
2023/10/11 05:07:42;;;;;;;6.40;4.05;;;;;;;16.02;43.50;101050.09;5047167;28;20481;-86
2023/10/11 05:10:30;;;;;;;6.70;4.25;;;;;;;16.03;43.21;101052.69;5047493;28;20052;-86
2023/10/11 05:13:05;;;;;;;8.45;4.10;;;;;;;16.04;43.44;101064.59;5046047;28;20032;-86
2023/10/11 05:15:42;;;;;;;8.95;4.53;;;;;;;16.01;43.33;101056.63;5045971;28;20041;-85
2023/10/11 05:18:18;;;;;;;7.70;4.30;;;;;;;15.99;43.28;101059.59;5052849;28;20055;-86
2023/10/11 05:20:57;;;;;;;7.40;4.43;;;;;;;15.97;43.42;101058.88;5056419;28;20485;-87
2023/10/11 05:23:41;;;;;;;7.93;4.20;;;;;;;15.97;43.47;101052.50;5058863;28;20049;-86
2023/10/11 05:26:36;;;;;;;6.97;3.92;;;;;;;15.95;42.99;101055.41;5046137;28;20098;-83
2023/10/11 05:29:24;;;;;;;8.25;4.28;;;;;;;15.97;43.28;101055.25;5046298;28;20099;-85
2023/10/11 05:32:20;;;;;;;7.47;4.10;;;;;;;15.93;43.04;101051.94;5045012;28;20210;-84
2023/10/11 05:34:50;;;;;;;7.40;4.30;;;;;;;15.93;43.13;101057.47;5043727;28;20354;-84
2023/10/11 05:51:09;;;;;;;7.50;4.20;;;;;;;15.85;43.68;101052.78;5050168;28;20148;-86
2023/10/11 05:53:40;;;;;;;7.20;4.15;;;;;;;15.88;43.53;101057.09;5049752;28;20073;-84
2023/10/11 05:56:09;;;;;;;7.90;4.03;;;;;;;15.86;43.65;101046.22;5052377;28;20045;-84
2023/10/11 05:58:38;;;;;;;8.05;4.30;;;;;;;15.86;43.50;101053.63;5048295;28;20529;-84
2023/10/11 06:01:13;;;;;;;6.63;4.15;;;;;;;15.88;43.22;101054.34;5045545;28;20126;-83
2023/10/11 06:03:42;;;;;;;6.78;4.60;;;;;;;15.83;43.57;101051.22;5047490;28;20056;-86
2023/10/11 06:06:23;;;;;;;8.85;4.40;;;;;;;15.83;43.78;101043.81;5047367;28;20041;-86
2023/10/11 06:08:52;;;;;;;10.35;4.90;;;;;;;15.81;43.31;101059.66;5045490;28;20053;-85
2023/10/11 06:11:23;;;;;;;7.43;4.43;;;;;;;15.82;43.83;101060.53;5046535;28;20385;-84
2023/10/11 06:13:52;;;;;;;8.82;4.75;;;;;;;15.81;43.86;101054.16;5047386;28;20037;-86
2023/10/11 06:16:23;;;;;;;6.95;4.30;;;;;;;15.84;43.69;101056.56;5044065;28;20103;-84
2023/10/11 06:18:57;;;;;;;8.85;4.40;;;;;;;15.81;43.49;101058.78;5045982;28;20037;-84
2023/10/11 06:21:33;;;;;;;8.88;4.30;;;;;;;15.82;43.88;101050.34;5044760;28;20068;-83
2023/10/11 06:24:03;;;;;;;8.18;4.55;;;;;;;15.83;43.40;101041.06;5045575;28;20135;-84
2023/10/11 06:29:22;;;;;;;8.80;4.63;;;;;;;15.83;43.92;101042.94;5046665;28;20548;-83
2023/10/11 06:31:54;;;;;;;7.88;4.63;;;;;;;15.83;43.93;101035.53;5042653;28;20049;-83
2023/10/11 06:34:26;;;;;;;9.68;4.72;;;;;;;15.83;44.24;101035.53;5046200;28;20056;-84
2023/10/11 06:36:55;;;;;;;7.93;4.30;;;;;;;15.87;44.25;101045.19;5041912;28;20053;-86
2023/10/11 06:42:21;;;;;;;8.43;4.22;;;;;;;15.92;44.12;101054.91;5042893;28;20049;-84
2023/10/11 06:44:52;;;;;;;8.65;4.40;;;;;;;15.97;44.64;101053.38;5042922;28;20060;-83
2023/10/11 06:47:22;;;;;;;6.75;4.20;;;;;;;16.06;44.14;101068.94;5042792;28;20060;-82
2023/10/11 06:49:54;;;;;;;8.25;4.78;;;;;;;16.11;44.12;101076.72;5045452;28;20053;-84
2023/10/11 06:52:26;;;;;;;8.13;4.45;;;;;;;16.14;44.76;101068.13;5043295;28;20044;-84
2023/10/11 06:55:16;;;;;;;7.50;3.90;;;;;;;16.20;44.20;101075.75;5044864;28;20102;-84
2023/10/11 06:57:50;;;;;;;6.95;4.32;;;;;;;16.31;44.19;101069.09;5043087;28;20475;-85
2023/10/11 07:00:24;;;;;;;7.50;3.78;;;;;;;16.37;44.55;101076.69;5049755;28;20060;-83
2023/10/11 07:03:06;;;;;;;6.22;3.83;;;;;;;16.47;43.92;101081.06;5070036;28;20504;-85
2023/10/11 07:05:40;;;;;;;6.90;3.55;;;;;;;16.51;44.12;101082.44;5052841;28;20053;-85
2023/10/11 07:08:09;;;;;;;6.80;3.80;;;;;;;16.59;44.31;101079.69;5046529;28;20095;-85
2023/10/11 07:10:45;;;;;;;7.10;4.03;;;;;;;16.70;43.73;101081.28;5044558;28;20080;-84
2023/10/11 07:13:15;;;;;;;6.53;3.58;;;;;;;16.77;44.01;101075.94;5045496;28;20045;-84
2023/10/11 07:15:45;;;;;;;6.82;3.67;;;;;;;16.85;43.38;101075.97;5041811;28;20110;-85
2023/10/11 07:18:25;;;;;;;7.25;3.65;;;;;;;16.92;43.32;101072.34;5046033;28;20131;-84
2023/10/11 07:21:07;;;;;;;8.43;3.65;;;;;;;16.96;43.21;101068.22;5043480;28;20053;-83
2023/10/11 07:23:56;;;;;;;6.60;3.70;;;;;;;17.01;43.14;101071.34;5045665;28;20094;-83
2023/10/11 07:29:14;;;;;;;6.75;3.47;;;;;;;17.13;43.26;101076.56;5046885;28;20053;-85
2023/10/11 07:31:48;;;;;;;7.53;3.25;;;;;;;17.17;43.08;101070.50;5050620;28;20136;-84
2023/10/11 07:34:20;;;;;;;8.45;3.90;;;;;;;17.25;42.77;101073.25;5047857;28;20041;-83
2023/10/11 07:36:49;;;;;;;8.00;3.67;;;;;;;17.26;42.87;101075.00;5049358;28;20052;-84
2023/10/11 07:39:25;;;;;;;7.07;3.72;;;;;;;17.33;42.54;101078.78;5063664;28;20045;-84
2023/10/11 07:42:01;;;;;;;6.15;3.42;;;;;;;17.37;42.69;101071.03;5054317;28;20056;-84
2023/10/11 07:44:31;;;;;;;7.60;3.35;;;;;;;17.40;42.37;101067.91;5046274;28;20243;-84
2023/10/11 07:46:59;;;;;;;6.50;3.38;;;;;;;17.46;42.50;101060.81;5048027;28;20107;-83
2023/10/11 07:49:37;;;;;;;8.48;3.80;;;;;;;17.52;42.27;101051.81;5049101;28;20131;-84
2023/10/11 07:52:09;;;;;;;6.40;3.30;;;;;;;17.52;42.67;101047.13;5047791;28;20076;-84
2023/10/11 07:54:40;;;;;;;6.57;3.40;;;;;;;17.57;42.42;101055.75;5048909;28;20063;-85
2023/10/11 07:57:13;;;;;;;5.55;3.15;;;;;;;17.60;42.21;101060.97;5047981;28;20050;-85
2023/10/11 07:59:42;;;;;;;9.27;3.47;;;;;;;17.63;42.48;101055.09;5047879;28;20116;-84
2023/10/11 08:02:26;;;;;;;5.25;3.08;;;;;;;17.69;42.07;101059.91;5050543;28;20049;-84
2023/10/11 08:04:58;;;;;;;6.57;3.35;;;;;;;17.75;42.26;101063.91;5046509;28;20061;-85
2023/10/11 08:07:28;;;;;;;9.05;3.65;;;;;;;17.78;42.01;101058.03;5047595;28;20631;-83
2023/10/11 08:09:56;;;;;;;6.18;3.33;;;;;;;17.85;41.87;101063.72;5047267;28;20045;-84
2023/10/11 08:12:24;;;;;;;7.97;3.55;;;;;;;17.90;41.90;101050.19;5046803;28;20152;-84
2023/10/11 08:14:56;;;;;;;6.75;3.22;;;;;;;17.95;41.76;101053.31;5046878;28;20057;-84
2023/10/11 08:17:29;;;;;;;5.93;3.30;;;;;;;17.98;41.59;101059.31;5044776;28;20049;-84
2023/10/11 08:20:05;;;;;;;6.43;3.13;;;;;;;18.08;41.18;101056.34;5046248;28;20061;-84
2023/10/11 08:22:35;;;;;;;6.35;3.00;;;;;;;18.13;41.42;101062.25;5046465;28;20594;-84
2023/10/11 08:25:03;;;;;;;5.78;2.90;;;;;;;18.20;41.28;101062.38;5046929;28;20057;-84
2023/10/11 08:27:32;;;;;;;7.07;3.08;;;;;;;18.26;41.25;101061.66;5050304;28;20049;-84
2023/10/11 08:30:08;;;;;;;6.13;3.53;;;;;;;18.34;41.34;101069.94;5049401;28;20160;-84
2023/10/11 08:32:42;;;;;;;6.47;3.20;;;;;;;18.41;41.22;101071.81;5048156;28;20057;-84
2023/10/11 08:35:16;;;;;;;4.88;2.83;;;;;;;18.50;41.02;101072.66;5050224;28;20428;-84
2023/10/11 08:37:52;;;;;;;6.78;3.40;;;;;;;18.56;40.71;101082.16;5049477;28;20045;-85
2023/10/11 08:40:23;;;;;;;6.32;3.20;;;;;;;18.62;40.90;101081.44;5051757;28;20049;-84
2023/10/11 08:42:52;;;;;;;8.05;3.50;;;;;;;18.70;40.97;101085.03;5051295;28;20229;-85
2023/10/11 08:45:28;;;;;;;6.13;3.30;;;;;;;18.81;40.29;101092.06;5057302;28;20060;-84
2023/10/11 08:47:57;;;;;;;8.13;3.28;;;;;;;18.85;41.21;101091.53;5057828;28;20121;-84
2023/10/11 08:50:34;;;;;;;5.40;3.05;;;;;;;18.96;40.60;101092.16;5054149;28;20178;-84
2023/10/11 08:53:08;;;;;;;7.13;3.08;;;;;;;19.04;40.79;101087.41;5038025;28;20053;-85
2023/10/11 08:55:39;;;;;;;8.40;3.95;;;;;;;19.14;41.01;101078.81;5045449;28;20040;-84
2023/10/11 08:58:12;;;;;;;6.28;3.50;;;;;;;19.21;41.05;101079.88;5047319;28;20045;-84
2023/10/11 09:00:47;;;;;;;10.50;6.38;;;;;;;19.30;41.15;101084.28;5046538;28;20049;-84
2023/10/11 09:03:18;;;;;;;10.65;6.30;;;;;;;19.41;41.00;101081.06;5049216;28;20045;-85
2023/10/11 09:05:58;;;;;;;9.20;6.20;;;;;;;19.52;40.87;101075.06;5050571;28;20061;-85
2023/10/11 09:08:31;;;;;;;8.13;4.60;;;;;;;19.62;40.42;101074.81;5050025;28;20056;-85
2023/10/11 09:11:15;;;;;;;7.75;4.13;;;;;;;19.76;39.40;101082.31;5053203;28;20055;-85
2023/10/11 09:13:44;;;;;;;7.00;3.50;;;;;;;19.81;40.49;101082.59;5051439;28;20049;-84
2023/10/11 09:16:34;;;;;;;6.72;3.17;;;;;;;19.95;39.38;101078.16;5050764;28;20466;-84
2023/10/11 09:19:06;;;;;;;7.15;3.30;;;;;;;20.06;39.81;101074.00;5049694;28;20451;-84
2023/10/11 09:21:37;;;;;;;6.07;3.28;;;;;;;20.19;39.38;101072.31;5051918;28;21191;-84
2023/10/11 09:24:23;;;;;;;6.90;3.17;;;;;;;20.28;38.43;101076.69;5049871;28;20049;-84
2023/10/11 09:27:18;;;;;;;6.40;3.05;;;;;;;20.43;38.03;101075.81;5051027;28;20053;-84
2023/10/11 09:29:49;;;;;;;5.85;2.85;;;;;;;20.51;38.73;101079.38;5047643;28;20056;-84
2023/10/11 09:32:19;;;;;;;6.68;3.10;;;;;;;20.61;38.10;101071.59;5049241;28;20518;-84
2023/10/11 09:34:51;;;;;;;6.35;3.33;;;;;;;20.70;38.34;101062.06;5048776;28;20545;-84
2023/10/11 09:37:23;;;;;;;6.88;3.10;;;;;;;20.82;37.71;101070.78;5048158;28;20076;-83
2023/10/11 09:39:55;;;;;;;5.03;2.70;;;;;;;20.90;37.88;101070.66;5051363;28;20045;-85
2023/10/11 09:42:29;;;;;;;7.50;3.10;;;;;;;21.02;37.86;101068.22;5053993;28;20504;-86
2023/10/11 09:45:00;;;;;;;5.53;2.88;;;;;;;21.10;37.82;101070.88;5051994;28;20147;-85
2023/10/11 09:47:31;;;;;;;4.97;2.80;;;;;;;21.19;37.54;101072.44;5051544;28;20045;-85
2023/10/11 09:50:01;;;;;;;7.70;3.63;;;;;;;21.30;37.50;101071.09;5051656;28;20090;-86
2023/10/11 09:52:33;;;;;;;6.57;3.00;;;;;;;21.40;36.18;101079.97;5049155;28;20067;-87
2023/10/11 09:55:10;;;;;;;6.57;2.83;;;;;;;21.47;36.33;101078.97;5052444;28;20069;-86
2023/10/11 09:57:50;;;;;;;7.30;3.72;;;;;;;21.56;36.00;101079.69;5051633;28;20071;-85
2023/10/11 10:00:34;;;;;;;6.05;3.00;;;;;;;21.67;35.41;101075.50;5055200;28;20041;-84
2023/10/11 10:03:06;;;;;;;8.07;2.97;;;;;;;21.73;35.90;101072.75;5067064;28;20045;-84
2023/10/11 10:06:05;;;;;;;5.88;3.03;;;;;;;21.80;35.85;101070.88;5049963;28;20161;-86
2023/10/11 10:08:35;;;;;;;5.47;2.90;;;;;;;21.88;36.14;101067.06;5049216;28;20123;-85
2023/10/11 10:11:04;;;;;;;4.90;2.78;;;;;;;21.95;35.92;101069.94;5050773;28;20049;-85
2023/10/11 10:14:24;;;;;;;4.78;2.70;;;;;;;22.05;35.27;101062.94;5048615;28;20042;-85
2023/10/11 10:17:10;;;;;;;6.45;2.90;;;;;;;22.12;35.04;101071.31;5051864;28;20045;-86
2023/10/11 10:19:42;;;;;;;6.85;3.15;;;;;;;22.16;35.42;101065.16;5055328;28;20661;-86
2023/10/11 10:22:23;;;;;;;6.18;3.60;;;;;;;22.26;34.62;101062.00;5051333;28;20065;-86
2023/10/11 10:24:55;;;;;;;8.48;3.22;;;;;;;22.30;35.16;101068.88;5052961;28;20049;-86
2023/10/11 10:27:45;;;;;;;5.53;3.33;;;;;;;22.36;34.19;101062.44;5053302;28;20052;-85
2023/10/11 10:30:21;;;;;;;5.45;2.90;;;;;;;22.43;35.12;101074.50;5052063;28;20099;-84
2023/10/11 10:33:19;;;;;;;5.07;3.30;;;;;;;22.51;34.04;101070.66;5049150;28;20087;-85
2023/10/11 10:35:48;;;;;;;7.90;2.88;;;;;;;22.55;34.49;101069.22;5046867;28;20139;-84
2023/10/11 10:38:22;;;;;;;5.88;3.45;;;;;;;22.62;34.33;101072.91;5048193;28;20110;-84
2023/10/11 10:41:25;;;;;;;5.18;3.17;;;;;;;22.67;33.55;101062.00;5048460;28;20052;-84
2023/10/11 10:44:05;;;;;;;7.05;3.22;;;;;;;22.74;33.62;101062.00;5049392;28;20037;-86
2023/10/11 10:46:35;;;;;;;6.40;3.20;;;;;;;22.74;33.74;101062.00;5047827;28;20456;-84
2023/10/11 10:49:05;;;;;;;6.55;3.00;;;;;;;22.82;33.38;101061.81;5047927;28;20037;-85
2023/10/11 10:51:47;;;;;;;5.45;3.05;;;;;;;22.80;33.50;101050.88;5047857;28;20087;-85
2023/10/11 10:54:21;;;;;;;6.30;3.20;;;;;;;22.85;33.41;101045.50;5046472;28;20049;-86
2023/10/11 10:56:53;;;;;;;6.88;2.85;;;;;;;22.87;33.40;101042.50;5046494;28;20380;-85
2023/10/11 10:59:21;;;;;;;7.57;3.03;;;;;;;22.86;33.22;101041.63;5049706;28;20080;-86
2023/10/11 11:01:52;;;;;;;6.97;3.00;;;;;;;22.90;32.96;101037.38;5045980;28;20060;-85
2023/10/11 11:04:28;;;;;;;9.75;3.38;;;;;;;22.93;32.45;101041.66;5046760;28;20685;-86
2023/10/11 11:06:58;;;;;;;6.07;3.00;;;;;;;22.92;32.76;101040.78;5050076;28;20147;-86
2023/10/11 11:09:25;;;;;;;9.82;3.35;;;;;;;22.93;32.86;101044.44;5054714;28;20079;-85
2023/10/11 11:12:14;;;;;;;6.45;3.13;;;;;;;22.96;32.36;101036.53;5055392;28;20069;-86
2023/10/11 11:14:54;;;;;;;6.43;3.20;;;;;;;22.97;31.95;101048.53;5053271;28;20097;-86
2023/10/11 11:17:24;;;;;;;5.82;3.03;;;;;;;22.96;32.83;101044.03;5051196;28;20048;-85
2023/10/11 11:20:15;;;;;;;8.02;3.22;;;;;;;23.02;32.26;101040.38;5051532;28;20416;-86
2023/10/11 11:22:45;;;;;;;6.85;2.90;;;;;;;22.99;32.83;101030.53;5049105;28;20056;-84
2023/10/11 11:25:26;;;;;;;6.97;3.38;;;;;;;23.03;32.51;101042.09;5054092;28;20052;-84
2023/10/11 11:28:17;;;;;;;7.38;3.90;;;;;;;23.04;32.21;101035.47;5049597;28;20041;-86
2023/10/11 11:31:10;;;;;;;6.72;3.03;;;;;;;23.07;31.81;101034.19;5051353;28;20056;-85
2023/10/11 11:33:47;;;;;;;6.35;2.90;;;;;;;23.05;32.50;101034.38;5045179;28;20060;-85
2023/10/11 11:36:30;;;;;;;6.95;2.90;;;;;;;23.11;31.65;101033.53;5052961;28;20091;-85
2023/10/11 11:39:17;;;;;;;6.05;3.00;;;;;;;23.08;32.23;101024.75;5054626;28;20040;-85
2023/10/11 11:41:49;;;;;;;6.47;3.47;;;;;;;23.11;32.24;101019.56;5055018;28;20041;-85
2023/10/11 11:44:20;;;;;;;7.13;3.03;;;;;;;23.13;31.97;101017.44;5051994;28;20059;-86
2023/10/11 11:46:53;;;;;;;7.85;3.35;;;;;;;23.15;32.34;101020.03;5068501;28;20034;-85
2023/10/11 11:49:29;;;;;;;7.97;3.03;;;;;;;23.15;31.93;101012.50;5051352;28;20642;-86
2023/10/11 11:51:57;;;;;;;6.65;3.22;;;;;;;23.18;31.97;101023.25;5051336;28;20037;-85
2023/10/11 11:54:28;;;;;;;7.88;3.40;;;;;;;23.20;32.22;101006.28;5049333;28;20071;-86
2023/10/11 11:56:58;;;;;;;6.57;3.10;;;;;;;23.21;31.91;101014.47;5050856;28;20508;-85
2023/10/11 11:59:30;;;;;;;5.93;2.90;;;;;;;23.23;31.98;101017.03;5055981;28;20341;-84
2023/10/11 12:01:59;;;;;;;;;;;;;;;22.93;32.71;101016.53;5054545;28;20107;-83
2023/10/11 12:04:29;;;;;;;6.45;2.70;;;;;;;23.20;32.55;101004.38;5063284;28;20361;-83
2023/10/11 12:06:59;;;;;;;6.63;2.80;;;;;;;23.28;32.26;100995.78;5048086;28;20045;-84
2023/10/11 12:09:31;;;;;;;5.90;2.83;;;;;;;23.33;31.95;100993.19;5061280;28;20615;-85
2023/10/11 12:12:09;;;;;;;6.93;3.03;;;;;;;23.33;32.20;100986.78;5058193;28;20059;-85
2023/10/11 12:14:39;;;;;;;7.03;3.22;;;;;;;23.38;31.88;100987.84;5059989;28;20069;-85
2023/10/11 12:17:10;;;;;;;5.85;3.20;;;;;;;23.41;32.05;100991.28;5057931;28;20041;-84
2023/10/11 12:19:38;;;;;;;7.22;3.25;;;;;;;23.45;31.91;100995.34;5054570;28;20049;-85